sensor_id;sensor_type;location;lat;lon;timestamp;pressure;altitude;pressure_sealevel;temperature;humidity
31096;BME280;17749;51.962;8.560;2023-04-05T05:01:33;100803.22;;;-1.20;100.00
31096;BME280;17749;51.962;8.560;2023-04-05T05:04:02;100796.22;;;-1.21;100.00
31096;BME280;17749;51.962;8.560;2023-04-05T05:06:33;100806.66;;;-1.21;100.00
31096;BME280;17749;51.962;8.560;2023-04-05T05:09:01;100797.91;;;-1.23;100.00
31096;BME280;17749;51.962;8.560;2023-04-05T05:11:31;100801.34;;;-1.26;100.00
31096;BME280;17749;51.962;8.560;2023-04-05T05:13:58;100803.06;;;-1.26;100.00
31096;BME280;17749;51.962;8.560;2023-04-05T05:16:27;100801.28;;;-1.30;100.00
31096;BME280;17749;51.962;8.560;2023-04-05T05:18:55;100795.09;;;-1.34;100.00
31096;BME280;17749;51.962;8.560;2023-04-05T05:21:25;100803.88;;;-1.30;100.00
31096;BME280;17749;51.962;8.560;2023-04-05T05:23:56;100794.22;;;-1.36;100.00
31096;BME280;17749;51.962;8.560;2023-04-05T05:26:23;100802.91;;;-1.36;100.00
31096;BME280;17749;51.962;8.560;2023-04-05T05:28:50;100804.75;;;-1.30;100.00
31096;BME280;17749;51.962;8.560;2023-04-05T05:31:19;100808.19;;;-1.33;100.00
31096;BME280;17749;51.962;8.560;2023-04-05T05:33:46;100789.94;;;-1.31;100.00
31096;BME280;17749;51.962;8.560;2023-04-05T05:36:15;100801.34;;;-1.26;100.00
31096;BME280;17749;51.962;8.560;2023-04-05T05:38:42;100799.69;;;-1.22;100.00
31096;BME280;17749;51.962;8.560;2023-04-05T05:41:09;100796.16;;;-1.24;100.00
31096;BME280;17749;51.962;8.560;2023-04-05T05:43:37;100799.78;;;-1.18;100.00
31096;BME280;17749;51.962;8.560;2023-04-05T05:46:04;100805.00;;;-1.16;100.00
31096;BME280;17749;51.962;8.560;2023-04-05T05:48:32;100793.75;;;-1.14;100.00
31096;BME280;17749;51.962;8.560;2023-04-05T05:50:59;100797.34;;;-1.07;100.00
31096;BME280;17749;51.962;8.560;2023-04-05T05:53:36;100794.75;;;-1.07;100.00
31096;BME280;17749;51.962;8.560;2023-04-05T05:56:03;100793.09;;;-1.02;100.00
31096;BME280;17749;51.962;8.560;2023-04-05T05:58:31;100794.94;;;-0.95;100.00
31096;BME280;17749;51.962;8.560;2023-04-05T06:00:59;100795.13;;;-0.85;100.00
31096;BME280;17749;51.962;8.560;2023-04-05T06:03:27;100798.75;;;-0.77;100.00
31096;BME280;17749;51.962;8.560;2023-04-05T06:05:56;100801.53;;;-0.67;100.00
31096;BME280;17749;51.962;8.560;2023-04-05T06:08:25;100784.97;;;-0.67;100.00
31096;BME280;17749;51.962;8.560;2023-04-05T06:10:53;100794.78;;;-0.54;100.00
31096;BME280;17749;51.962;8.560;2023-04-05T06:13:21;100792.44;;;-0.35;100.00
31096;BME280;17749;51.962;8.560;2023-04-05T06:15:48;100799.69;;;-0.16;100.00
31096;BME280;17749;51.962;8.560;2023-04-05T06:18:16;100793.81;;;-0.01;100.00
31096;BME280;17749;51.962;8.560;2023-04-05T06:20:44;100793.94;;;0.10;100.00
31096;BME280;17749;51.962;8.560;2023-04-05T06:23:11;100796.75;;;0.22;100.00
31096;BME280;17749;51.962;8.560;2023-04-05T06:25:39;100795.97;;;0.29;100.00
31096;BME280;17749;51.962;8.560;2023-04-05T06:28:11;100791.81;;;0.47;100.00
31096;BME280;17749;51.962;8.560;2023-04-05T06:30:38;100800.72;;;0.61;100.00
31096;BME280;17749;51.962;8.560;2023-04-05T06:33:05;100790.44;;;0.81;100.00
31096;BME280;17749;51.962;8.560;2023-04-05T06:35:32;100800.31;;;1.06;100.00
31096;BME280;17749;51.962;8.560;2023-04-05T06:38:00;100794.41;;;1.30;100.00
31096;BME280;17749;51.962;8.560;2023-04-05T06:40:26;100794.63;;;1.52;100.00
31096;BME280;17749;51.962;8.560;2023-04-05T06:42:54;100791.28;;;1.76;100.00
31096;BME280;17749;51.962;8.560;2023-04-05T06:45:29;100780.94;;;2.02;100.00
31096;BME280;17749;51.962;8.560;2023-04-05T06:47:57;100793.34;;;2.31;100.00
31096;BME280;17749;51.962;8.560;2023-04-05T06:50:28;100789.91;;;2.50;100.00
31096;BME280;17749;51.962;8.560;2023-04-05T06:52:57;100793.50;;;2.77;100.00
31096;BME280;17749;51.962;8.560;2023-04-05T06:55:27;100792.66;;;2.98;100.00
31096;BME280;17749;51.962;8.560;2023-04-05T06:57:56;100798.88;;;3.20;100.00
31096;BME280;17749;51.962;8.560;2023-04-05T07:00:23;100788.34;;;3.44;100.00
31096;BME280;17749;51.962;8.560;2023-04-05T07:02:50;100789.22;;;3.69;100.00
31096;BME280;17749;51.962;8.560;2023-04-05T07:05:17;100786.53;;;3.99;100.00
31096;BME280;17749;51.962;8.560;2023-04-05T07:07:44;100776.78;;;4.30;100.00
31096;BME280;17749;51.962;8.560;2023-04-05T07:10:14;100781.03;;;4.57;100.00
31096;BME280;17749;51.962;8.560;2023-04-05T07:12:41;100775.59;;;4.84;100.00
31096;BME280;17749;51.962;8.560;2023-04-05T07:15:08;100777.19;;;5.16;100.00
31096;BME280;17749;51.962;8.560;2023-04-05T07:17:35;100761.16;;;5.38;100.00
31096;BME280;17749;51.962;8.560;2023-04-05T07:20:02;100760.06;;;5.60;100.00
31096;BME280;17749;51.962;8.560;2023-04-05T07:22:32;100769.50;;;5.86;92.43
31096;BME280;17749;51.962;8.560;2023-04-05T07:25:00;100757.13;;;5.94;94.14
31096;BME280;17749;51.962;8.560;2023-04-05T07:27:29;100758.56;;;6.23;96.60
31096;BME280;17749;51.962;8.560;2023-04-05T07:29:56;100756.56;;;6.43;91.71
31096;BME280;17749;51.962;8.560;2023-04-05T07:32:23;100756.22;;;6.68;92.04
31096;BME280;17749;51.962;8.560;2023-04-05T07:34:50;100749.72;;;6.92;91.18
31096;BME280;17749;51.962;8.560;2023-04-05T07:37:17;100750.19;;;7.18;92.05
31096;BME280;17749;51.962;8.560;2023-04-05T07:39:44;100758.84;;;7.28;87.37
31096;BME280;17749;51.962;8.560;2023-04-05T07:42:11;100763.03;;;7.43;86.59
31096;BME280;17749;51.962;8.560;2023-04-05T07:44:38;100751.06;;;7.70;86.26
31096;BME280;17749;51.962;8.560;2023-04-05T07:47:05;100754.16;;;7.94;88.45
31096;BME280;17749;51.962;8.560;2023-04-05T07:49:32;100766.25;;;8.10;81.79
31096;BME280;17749;51.962;8.560;2023-04-05T07:51:59;100762.63;;;8.14;81.12
31096;BME280;17749;51.962;8.560;2023-04-05T07:54:26;100760.69;;;8.22;80.04
31096;BME280;17749;51.962;8.560;2023-04-05T07:56:53;100764.03;;;8.33;81.80
31096;BME280;17749;51.962;8.560;2023-04-05T07:59:23;100755.94;;;8.41;78.38
31096;BME280;17749;51.962;8.560;2023-04-05T08:01:50;100754.09;;;8.45;79.19
31096;BME280;17749;51.962;8.560;2023-04-05T08:04:20;100761.91;;;8.51;80.76
31096;BME280;17749;51.962;8.560;2023-04-05T08:06:48;100768.78;;;8.61;78.15
31096;BME280;17749;51.962;8.560;2023-04-05T08:09:15;100759.50;;;8.39;74.46
31096;BME280;17749;51.962;8.560;2023-04-05T08:11:42;100759.03;;;8.18;76.88
31096;BME280;17749;51.962;8.560;2023-04-05T08:14:10;100761.75;;;8.15;78.71
31096;BME280;17749;51.962;8.560;2023-04-05T08:16:37;100755.38;;;8.22;79.90
31096;BME280;17749;51.962;8.560;2023-04-05T08:19:04;100760.09;;;8.08;76.88
31096;BME280;17749;51.962;8.560;2023-04-05T08:21:31;100755.03;;;7.96;75.31
31096;BME280;17749;51.962;8.560;2023-04-05T08:23:58;100756.59;;;8.07;79.76
31096;BME280;17749;51.962;8.560;2023-04-05T08:26:25;100754.72;;;8.12;77.09
31096;BME280;17749;51.962;8.560;2023-04-05T08:28:52;100754.94;;;8.00;76.36
31096;BME280;17749;51.962;8.560;2023-04-05T08:31:19;100750.50;;;8.01;75.71
31096;BME280;17749;51.962;8.560;2023-04-05T08:33:46;100750.97;;;7.76;73.08
31096;BME280;17749;51.962;8.560;2023-04-05T08:36:13;100750.91;;;7.79;76.19
31096;BME280;17749;51.962;8.560;2023-04-05T08:38:40;100749.06;;;7.84;74.75
31096;BME280;17749;51.962;8.560;2023-04-05T08:43:52;100756.84;;;8.39;78.52
31096;BME280;17749;51.962;8.560;2023-04-05T08:46:21;100754.53;;;8.65;77.73
31096;BME280;17749;51.962;8.560;2023-04-05T08:48:49;100750.00;;;8.70;75.14
31096;BME280;17749;51.962;8.560;2023-04-05T08:51:23;100753.28;;;8.82;75.81
31096;BME280;17749;51.962;8.560;2023-04-05T08:53:50;100750.84;;;8.72;74.42
31096;BME280;17749;51.962;8.560;2023-04-05T08:56:20;100752.50;;;8.76;75.93
31096;BME280;17749;51.962;8.560;2023-04-05T08:58:57;100753.97;;;8.90;73.67
31096;BME280;17749;51.962;8.560;2023-04-05T09:01:29;100748.25;;;9.08;74.81
31096;BME280;17749;51.962;8.560;2023-04-05T09:04:05;100743.53;;;9.19;72.96
31096;BME280;17749;51.962;8.560;2023-04-05T09:06:34;100750.53;;;9.24;73.21
31096;BME280;17749;51.962;8.560;2023-04-05T09:09:05;100750.00;;;9.09;73.55
31096;BME280;17749;51.962;8.560;2023-04-05T09:11:33;100740.06;;;9.17;70.89
31096;BME280;17749;51.962;8.560;2023-04-05T09:14:04;100745.97;;;9.29;72.78
31096;BME280;17749;51.962;8.560;2023-04-05T09:16:34;100745.75;;;9.38;72.71
31096;BME280;17749;51.962;8.560;2023-04-05T09:19:02;100743.41;;;9.24;68.12
31096;BME280;17749;51.962;8.560;2023-04-05T09:22:03;100752.22;;;9.28;70.97
31096;BME280;17749;51.962;8.560;2023-04-05T09:24:41;100752.97;;;9.33;67.83
31096;BME280;17749;51.962;8.560;2023-04-05T09:27:11;100744.88;;;9.37;68.06
31096;BME280;17749;51.962;8.560;2023-04-05T09:29:40;100731.31;;;9.48;69.32
31096;BME280;17749;51.962;8.560;2023-04-05T09:32:09;100732.50;;;9.71;67.91
31096;BME280;17749;51.962;8.560;2023-04-05T09:34:37;100721.63;;;9.80;66.46
31096;BME280;17749;51.962;8.560;2023-04-05T09:39:43;100720.09;;;10.02;68.85
31096;BME280;17749;51.962;8.560;2023-04-05T09:42:11;100724.13;;;9.84;66.68
31096;BME280;17749;51.962;8.560;2023-04-05T09:45:00;100722.75;;;10.02;67.43
31096;BME280;17749;51.962;8.560;2023-04-05T09:47:33;100720.38;;;10.24;66.71
31096;BME280;17749;51.962;8.560;2023-04-05T09:52:41;100714.13;;;10.25;64.16
31096;BME280;17749;51.962;8.560;2023-04-05T09:55:09;100723.09;;;10.21;62.09
31096;BME280;17749;51.962;8.560;2023-04-05T09:57:38;100718.53;;;10.28;63.55
31096;BME280;17749;51.962;8.560;2023-04-05T10:00:15;100723.91;;;10.56;66.08
31096;BME280;17749;51.962;8.560;2023-04-05T10:02:42;100719.19;;;10.94;64.44
31096;BME280;17749;51.962;8.560;2023-04-05T10:05:10;100713.44;;;11.34;65.22
31096;BME280;17749;51.962;8.560;2023-04-05T10:07:42;100708.97;;;11.60;65.42
31096;BME280;17749;51.962;8.560;2023-04-05T10:10:10;100710.63;;;11.64;63.86
31096;BME280;17749;51.962;8.560;2023-04-05T10:12:39;100713.00;;;11.47;63.12
31096;BME280;17749;51.962;8.560;2023-04-05T10:15:10;100708.63;;;11.44;63.25
31096;BME280;17749;51.962;8.560;2023-04-05T10:18:05;100695.38;;;11.43;65.68
31096;BME280;17749;51.962;8.560;2023-04-05T10:20:38;100682.75;;;10.94;61.77
31096;BME280;17749;51.962;8.560;2023-04-05T10:23:15;100705.50;;;11.05;65.23
31096;BME280;17749;51.962;8.560;2023-04-05T10:28:28;100688.50;;;11.35;63.41
31096;BME280;17749;51.962;8.560;2023-04-05T10:31:07;100692.59;;;11.46;62.51
31096;BME280;17749;51.962;8.560;2023-04-05T10:33:42;100686.25;;;11.23;60.24
31096;BME280;17749;51.962;8.560;2023-04-05T10:36:34;100687.53;;;11.38;61.12
31096;BME280;17749;51.962;8.560;2023-04-05T10:39:43;100689.28;;;11.64;61.88
31096;BME280;17749;51.962;8.560;2023-04-05T10:42:26;100692.41;;;12.02;59.68
31096;BME280;17749;51.962;8.560;2023-04-05T10:45:01;100685.63;;;12.17;61.33
31096;BME280;17749;51.962;8.560;2023-04-05T10:47:30;100687.78;;;12.31;57.71
31096;BME280;17749;51.962;8.560;2023-04-05T10:50:02;100690.59;;;12.49;59.82
31096;BME280;17749;51.962;8.560;2023-04-05T10:52:31;100684.34;;;12.27;55.52
31096;BME280;17749;51.962;8.560;2023-04-05T10:55:01;100681.91;;;12.44;58.39
31096;BME280;17749;51.962;8.560;2023-04-05T10:57:29;100680.56;;;12.56;57.88
31096;BME280;17749;51.962;8.560;2023-04-05T10:59:58;100672.38;;;12.61;58.02
31096;BME280;17749;51.962;8.560;2023-04-05T11:02:27;100672.63;;;12.77;58.41
31096;BME280;17749;51.962;8.560;2023-04-05T11:04:55;100668.38;;;13.15;59.58
31096;BME280;17749;51.962;8.560;2023-04-05T11:07:23;100666.28;;;13.01;56.50
31096;BME280;17749;51.962;8.560;2023-04-05T11:10:04;100674.38;;;13.00;57.53
31096;BME280;17749;51.962;8.560;2023-04-05T11:15:27;100656.06;;;13.11;54.99
31096;BME280;17749;51.962;8.560;2023-04-05T11:20:43;100666.44;;;13.41;56.96
31096;BME280;17749;51.962;8.560;2023-04-05T11:23:12;100665.56;;;13.40;57.13
31096;BME280;17749;51.962;8.560;2023-04-05T11:26:05;100664.63;;;13.62;54.63
31096;BME280;17749;51.962;8.560;2023-04-05T11:28:36;100653.59;;;13.69;58.27
31096;BME280;17749;51.962;8.560;2023-04-05T11:31:16;100650.56;;;13.77;57.75
31096;BME280;17749;51.962;8.560;2023-04-05T11:36:42;100650.81;;;13.52;58.79
31096;BME280;17749;51.962;8.560;2023-04-05T11:44:47;100639.50;;;13.45;57.62
31096;BME280;17749;51.962;8.560;2023-04-05T11:47:18;100629.31;;;13.33;56.46
31096;BME280;17749;51.962;8.560;2023-04-05T11:49:50;100631.66;;;13.41;56.17
31096;BME280;17749;51.962;8.560;2023-04-05T11:52:19;100628.25;;;13.37;56.23
31096;BME280;17749;51.962;8.560;2023-04-05T11:54:46;100629.13;;;13.58;57.59
31096;BME280;17749;51.962;8.560;2023-04-05T11:57:19;100629.31;;;13.53;59.67
31096;BME280;17749;51.962;8.560;2023-04-05T11:59:51;100621.44;;;13.50;56.00
31096;BME280;17749;51.962;8.560;2023-04-05T12:02:20;100617.81;;;13.51;57.22
31096;BME280;17749;51.962;8.560;2023-04-05T12:04:55;100616.22;;;13.68;56.67
31096;BME280;17749;51.962;8.560;2023-04-05T12:07:28;100611.09;;;13.82;55.79
31096;BME280;17749;51.962;8.560;2023-04-05T12:10:05;100607.59;;;13.80;57.06
31096;BME280;17749;51.962;8.560;2023-04-05T12:12:37;100605.22;;;13.74;57.38
31096;BME280;17749;51.962;8.560;2023-04-05T12:15:06;100601.78;;;13.31;51.85
31096;BME280;17749;51.962;8.560;2023-04-05T12:17:37;100601.59;;;13.13;53.46
31096;BME280;17749;51.962;8.560;2023-04-05T12:20:05;100595.84;;;13.23;55.56
31096;BME280;17749;51.962;8.560;2023-04-05T12:22:33;100600.88;;;13.10;55.04
31096;BME280;17749;51.962;8.560;2023-04-05T12:25:00;100597.53;;;13.05;55.82
31096;BME280;17749;51.962;8.560;2023-04-05T12:27:27;100601.88;;;13.28;56.64
31096;BME280;17749;51.962;8.560;2023-04-05T12:30:05;100595.28;;;13.36;55.35
31096;BME280;17749;51.962;8.560;2023-04-05T12:35:17;100591.81;;;12.92;55.97
31096;BME280;17749;51.962;8.560;2023-04-05T12:37:45;100586.47;;;12.92;56.43
31096;BME280;17749;51.962;8.560;2023-04-05T12:40:12;100585.34;;;12.76;56.69
31096;BME280;17749;51.962;8.560;2023-04-05T12:42:40;100580.00;;;12.76;56.05
31096;BME280;17749;51.962;8.560;2023-04-05T12:45:11;100576.09;;;12.62;56.56
31096;BME280;17749;51.962;8.560;2023-04-05T12:50:16;100571.88;;;12.57;56.83
31096;BME280;17749;51.962;8.560;2023-04-05T12:53:00;100565.19;;;12.24;54.53
31096;BME280;17749;51.962;8.560;2023-04-05T12:55:28;100568.19;;;12.15;56.75
31096;BME280;17749;51.962;8.560;2023-04-05T12:57:59;100564.97;;;12.07;57.74
31096;BME280;17749;51.962;8.560;2023-04-05T13:00:28;100568.16;;;11.93;56.27
31096;BME280;17749;51.962;8.560;2023-04-05T13:02:57;100573.53;;;11.68;54.07
31096;BME280;17749;51.962;8.560;2023-04-05T13:05:27;100569.81;;;11.72;54.85
31096;BME280;17749;51.962;8.560;2023-04-05T13:07:55;100556.44;;;11.74;56.74
31096;BME280;17749;51.962;8.560;2023-04-05T13:10:23;100553.69;;;11.75;58.33
31096;BME280;17749;51.962;8.560;2023-04-05T13:12:51;100555.38;;;11.78;57.24
31096;BME280;17749;51.962;8.560;2023-04-05T13:15:18;100551.72;;;11.80;57.49
31096;BME280;17749;51.962;8.560;2023-04-05T13:17:45;100546.25;;;11.83;57.70
31096;BME280;17749;51.962;8.560;2023-04-05T13:20:16;100548.13;;;11.81;59.38
31096;BME280;17749;51.962;8.560;2023-04-05T13:22:44;100546.50;;;11.77;57.59
31096;BME280;17749;51.962;8.560;2023-04-05T13:25:13;100544.41;;;11.85;59.25
31096;BME280;17749;51.962;8.560;2023-04-05T13:27:40;100547.38;;;11.78;57.30
31096;BME280;17749;51.962;8.560;2023-04-05T13:30:07;100545.13;;;11.67;57.88
31096;BME280;17749;51.962;8.560;2023-04-05T13:32:34;100537.94;;;11.69;58.09
31096;BME280;17749;51.962;8.560;2023-04-05T13:35:01;100540.09;;;11.58;58.97
31096;BME280;17749;51.962;8.560;2023-04-05T13:37:29;100536.09;;;11.46;58.02
31096;BME280;17749;51.962;8.560;2023-04-05T13:39:56;100534.59;;;11.39;59.29
31096;BME280;17749;51.962;8.560;2023-04-05T13:42:23;100539.06;;;11.38;58.49
31096;BME280;17749;51.962;8.560;2023-04-05T13:44:51;100534.78;;;11.34;58.67
31096;BME280;17749;51.962;8.560;2023-04-05T13:47:18;100536.56;;;11.34;58.94
31096;BME280;17749;51.962;8.560;2023-04-05T13:49:45;100526.66;;;11.12;57.82
31096;BME280;17749;51.962;8.560;2023-04-05T13:52:13;100530.56;;;11.02;58.34
31096;BME280;17749;51.962;8.560;2023-04-05T13:54:40;100526.06;;;10.52;55.28
31096;BME280;17749;51.962;8.560;2023-04-05T13:57:07;100529.13;;;10.40;59.11
31096;BME280;17749;51.962;8.560;2023-04-05T13:59:34;100520.06;;;10.46;59.45
31096;BME280;17749;51.962;8.560;2023-04-05T14:02:01;100517.16;;;10.53;60.77
31096;BME280;17749;51.962;8.560;2023-04-05T14:04:28;100518.50;;;10.67;61.49
31096;BME280;17749;51.962;8.560;2023-04-05T14:06:56;100514.13;;;10.64;58.27
31096;BME280;17749;51.962;8.560;2023-04-05T14:09:23;100510.41;;;10.43;59.02
31096;BME280;17749;51.962;8.560;2023-04-05T14:11:50;100505.47;;;10.31;58.53
31096;BME280;17749;51.962;8.560;2023-04-05T14:14:17;100508.22;;;10.28;59.27
31096;BME280;17749;51.962;8.560;2023-04-05T14:16:44;100508.16;;;10.29;60.28
31096;BME280;17749;51.962;8.560;2023-04-05T14:19:14;100496.81;;;10.23;60.62
31096;BME280;17749;51.962;8.560;2023-04-05T14:22:00;100495.97;;;10.22;61.72
31096;BME280;17749;51.962;8.560;2023-04-05T14:24:28;100496.81;;;10.23;59.73
31096;BME280;17749;51.962;8.560;2023-04-05T14:26:56;100490.69;;;10.21;61.25
31096;BME280;17749;51.962;8.560;2023-04-05T14:29:24;100492.44;;;10.22;60.80
31096;BME280;17749;51.962;8.560;2023-04-05T14:31:53;100491.63;;;10.20;57.96
31096;BME280;17749;51.962;8.560;2023-04-05T14:34:21;100484.84;;;10.09;58.30
31096;BME280;17749;51.962;8.560;2023-04-05T14:36:48;100486.78;;;10.04;59.23
31096;BME280;17749;51.962;8.560;2023-04-05T14:39:16;100481.66;;;9.98;60.34
31096;BME280;17749;51.962;8.560;2023-04-05T14:41:43;100487.88;;;9.97;61.37
31096;BME280;17749;51.962;8.560;2023-04-05T14:44:15;100480.09;;;9.91;61.30
31096;BME280;17749;51.962;8.560;2023-04-05T14:46:43;100475.69;;;9.90;61.68
31096;BME280;17749;51.962;8.560;2023-04-05T14:49:10;100485.53;;;9.88;61.83
31096;BME280;17749;51.962;8.560;2023-04-05T14:51:39;100480.28;;;9.85;61.01
31096;BME280;17749;51.962;8.560;2023-04-05T14:54:07;100479.56;;;9.80;61.62
31096;BME280;17749;51.962;8.560;2023-04-05T14:56:35;100480.09;;;9.61;59.80
31096;BME280;17749;51.962;8.560;2023-04-05T14:59:02;100465.38;;;9.51;61.68
31096;BME280;17749;51.962;8.560;2023-04-05T15:01:30;100465.44;;;9.48;62.06
31096;BME280;17749;51.962;8.560;2023-04-05T15:03:57;100467.28;;;9.46;63.00
31096;BME280;17749;51.962;8.560;2023-04-05T15:06:24;100462.13;;;9.40;62.47
31096;BME280;17749;51.962;8.560;2023-04-05T15:08:51;100461.50;;;9.32;61.34
31096;BME280;17749;51.962;8.560;2023-04-05T15:11:19;100463.50;;;9.24;61.67
31096;BME280;17749;51.962;8.560;2023-04-05T15:13:47;100460.03;;;9.21;61.88
31096;BME280;17749;51.962;8.560;2023-04-05T15:16:14;100463.81;;;9.13;61.19
31096;BME280;17749;51.962;8.560;2023-04-05T15:18:41;100464.78;;;9.10;62.09
31096;BME280;17749;51.962;8.560;2023-04-05T15:21:08;100457.75;;;9.09;62.29
31096;BME280;17749;51.962;8.560;2023-04-05T15:23:35;100461.47;;;9.02;59.53
31096;BME280;17749;51.962;8.560;2023-04-05T15:26:02;100454.59;;;8.95;61.21
31096;BME280;17749;51.962;8.560;2023-04-05T15:28:29;100455.59;;;8.91;61.93
31096;BME280;17749;51.962;8.560;2023-04-05T15:30:57;100449.44;;;8.89;62.40
31096;BME280;17749;51.962;8.560;2023-04-05T15:33:23;100450.22;;;8.92;62.22
31096;BME280;17749;51.962;8.560;2023-04-05T15:35:51;100445.94;;;8.88;61.86
31096;BME280;17749;51.962;8.560;2023-04-05T15:38:18;100439.66;;;8.91;61.99
31096;BME280;17749;51.962;8.560;2023-04-05T15:40:48;100439.78;;;8.86;61.08
31096;BME280;17749;51.962;8.560;2023-04-05T15:43:18;100432.69;;;8.87;61.71
31096;BME280;17749;51.962;8.560;2023-04-05T15:45:46;100441.38;;;8.92;61.86
31096;BME280;17749;51.962;8.560;2023-04-05T15:48:12;100436.06;;;8.92;61.71
31096;BME280;17749;51.962;8.560;2023-04-05T15:50:41;100435.22;;;8.91;61.58
31096;BME280;17749;51.962;8.560;2023-04-05T15:53:08;100427.34;;;8.88;62.10
31096;BME280;17749;51.962;8.560;2023-04-05T15:55:35;100435.34;;;8.87;61.02
31096;BME280;17749;51.962;8.560;2023-04-05T15:58:02;100439.06;;;8.80;59.21
31096;BME280;17749;51.962;8.560;2023-04-05T16:00:29;100435.56;;;8.77;60.50
31096;BME280;17749;51.962;8.560;2023-04-05T16:02:59;100429.59;;;8.69;61.34
31096;BME280;17749;51.962;8.560;2023-04-05T16:05:27;100424.38;;;8.66;60.92
31096;BME280;17749;51.962;8.560;2023-04-05T16:07:54;100414.69;;;8.65;61.35
31096;BME280;17749;51.962;8.560;2023-04-05T16:10:22;100421.72;;;8.66;61.78
31096;BME280;17749;51.962;8.560;2023-04-05T16:12:52;100421.63;;;8.69;62.65
31096;BME280;17749;51.962;8.560;2023-04-05T16:15:20;100426.06;;;8.70;62.25
31096;BME280;17749;51.962;8.560;2023-04-05T16:17:47;100421.72;;;8.66;62.05
31096;BME280;17749;51.962;8.560;2023-04-05T16:20:14;100424.50;;;8.62;62.81
31096;BME280;17749;51.962;8.560;2023-04-05T16:22:41;100421.91;;;8.60;62.82
31096;BME280;17749;51.962;8.560;2023-04-05T16:25:10;100420.16;;;8.59;62.39
31096;BME280;17749;51.962;8.560;2023-04-05T16:27:39;100416.69;;;8.57;62.36
31096;BME280;17749;51.962;8.560;2023-04-05T16:30:06;100412.28;;;8.56;62.22
31096;BME280;17749;51.962;8.560;2023-04-05T16:32:36;100419.44;;;8.52;62.75
31096;BME280;17749;51.962;8.560;2023-04-05T16:35:06;100417.78;;;8.48;61.92
31096;BME280;17749;51.962;8.560;2023-04-05T16:37:33;100416.06;;;8.46;62.27
31096;BME280;17749;51.962;8.560;2023-04-05T16:40:00;100417.09;;;8.42;62.61
31096;BME280;17749;51.962;8.560;2023-04-05T16:42:28;100413.41;;;8.46;61.63
31096;BME280;17749;51.962;8.560;2023-04-05T16:44:56;100412.72;;;8.39;61.88
31096;BME280;17749;51.962;8.560;2023-04-05T16:47:23;100415.44;;;8.36;62.37
31096;BME280;17749;51.962;8.560;2023-04-05T16:49:50;100411.88;;;8.35;62.39
31096;BME280;17749;51.962;8.560;2023-04-05T16:52:17;100410.06;;;8.38;62.72
31096;BME280;17749;51.962;8.560;2023-04-05T16:54:44;100412.81;;;8.34;62.03
31096;BME280;17749;51.962;8.560;2023-04-05T16:57:11;100412.91;;;8.31;62.15
31096;BME280;17749;51.962;8.560;2023-04-05T16:59:39;100411.28;;;8.26;62.95
31096;BME280;17749;51.962;8.560;2023-04-05T17:02:09;100414.91;;;8.22;62.37
31096;BME280;17749;51.962;8.560;2023-04-05T17:04:49;100411.50;;;8.17;62.43
31096;BME280;17749;51.962;8.560;2023-04-05T17:07:35;100406.53;;;8.03;62.25
31096;BME280;17749;51.962;8.560;2023-04-05T17:10:03;100411.00;;;8.01;63.27
31096;BME280;17749;51.962;8.560;2023-04-05T17:12:32;100412.91;;;7.96;63.12
31096;BME280;17749;51.962;8.560;2023-04-05T17:15:00;100417.41;;;7.92;63.51
31096;BME280;17749;51.962;8.560;2023-04-05T17:17:28;100414.88;;;7.87;63.10
31096;BME280;17749;51.962;8.560;2023-04-05T17:19:55;100397.34;;;7.80;64.85
31096;BME280;17749;51.962;8.560;2023-04-05T17:22:30;100399.25;;;7.75;63.88
31096;BME280;17749;51.962;8.560;2023-04-05T17:24:58;100404.69;;;7.71;64.03
31096;BME280;17749;51.962;8.560;2023-04-05T17:27:27;100398.59;;;7.65;64.53
31096;BME280;17749;51.962;8.560;2023-04-05T17:29:54;100400.44;;;7.62;64.62
31096;BME280;17749;51.962;8.560;2023-04-05T17:32:35;100411.09;;;7.60;64.71
31096;BME280;17749;51.962;8.560;2023-04-05T17:35:02;100405.91;;;7.54;64.33
31096;BME280;17749;51.962;8.560;2023-04-05T17:37:29;100405.06;;;7.54;64.81
31096;BME280;17749;51.962;8.560;2023-04-05T17:39:59;100399.06;;;7.45;66.23
31096;BME280;17749;51.962;8.560;2023-04-05T17:42:26;100407.16;;;7.39;67.93
31096;BME280;17749;51.962;8.560;2023-04-05T17:44:53;100408.97;;;7.37;67.99
31096;BME280;17749;51.962;8.560;2023-04-05T17:47:22;100407.41;;;7.27;68.32
31096;BME280;17749;51.962;8.560;2023-04-05T17:49:50;100404.00;;;7.22;67.77
31096;BME280;17749;51.962;8.560;2023-04-05T17:52:23;100405.78;;;7.20;69.17
31096;BME280;17749;51.962;8.560;2023-04-05T17:54:50;100397.28;;;7.06;69.69
31096;BME280;17749;51.962;8.560;2023-04-05T17:57:18;100402.66;;;7.01;69.83
31096;BME280;17749;51.962;8.560;2023-04-05T17:59:45;100412.53;;;6.94;71.76
31096;BME280;17749;51.962;8.560;2023-04-05T18:02:12;100401.19;;;6.86;73.07
31096;BME280;17749;51.962;8.560;2023-04-05T18:04:44;100400.47;;;6.78;73.77
31096;BME280;17749;51.962;8.560;2023-04-05T18:07:12;100411.13;;;6.76;74.42
31096;BME280;17749;51.962;8.560;2023-04-05T18:09:41;100415.56;;;6.73;75.10
31096;BME280;17749;51.962;8.560;2023-04-05T18:12:09;100414.97;;;6.58;76.10
31096;BME280;17749;51.962;8.560;2023-04-05T18:14:37;100408.91;;;6.52;76.43
31096;BME280;17749;51.962;8.560;2023-04-05T18:17:05;100419.56;;;6.50;77.22
31096;BME280;17749;51.962;8.560;2023-04-05T18:19:33;100401.31;;;6.33;77.51
31096;BME280;17749;51.962;8.560;2023-04-05T18:22:01;100417.25;;;6.30;78.39
31096;BME280;17749;51.962;8.560;2023-04-05T18:24:28;100414.78;;;6.20;79.05
31096;BME280;17749;51.962;8.560;2023-04-05T18:26:55;100421.94;;;6.14;80.11
31096;BME280;17749;51.962;8.560;2023-04-05T18:29:25;100419.47;;;6.05;81.39
31096;BME280;17749;51.962;8.560;2023-04-05T18:32:08;100418.69;;;5.97;81.99
31096;BME280;17749;51.962;8.560;2023-04-05T18:34:37;100419.69;;;5.88;83.29